sensor_id;sensor_type;location;lat;lon;timestamp;temperature;humidity
26745;DHT22;14342;50.960;13.880;2023-02-01T00:00:56;5.30;99.90
26745;DHT22;14342;50.960;13.880;2023-02-01T00:01:58;5.30;99.90
26745;DHT22;14342;50.960;13.880;2023-02-01T00:02:59;5.30;99.90
26745;DHT22;14342;50.960;13.880;2023-02-01T00:04:00;5.20;99.90
26745;DHT22;14342;50.960;13.880;2023-02-01T00:05:01;5.30;99.90
26745;DHT22;14342;50.960;13.880;2023-02-01T00:06:03;5.30;99.90
26745;DHT22;14342;50.960;13.880;2023-02-01T00:07:03;5.30;99.90
26745;DHT22;14342;50.960;13.880;2023-02-01T00:08:05;5.20;99.90
26745;DHT22;14342;50.960;13.880;2023-02-01T00:09:05;5.30;99.90
26745;DHT22;14342;50.960;13.880;2023-02-01T00:10:08;5.30;99.90
26745;DHT22;14342;50.960;13.880;2023-02-01T00:11:09;5.30;99.90
26745;DHT22;14342;50.960;13.880;2023-02-01T00:12:11;5.40;99.90
26745;DHT22;14342;50.960;13.880;2023-02-01T00:13:12;5.30;99.90
26745;DHT22;14342;50.960;13.880;2023-02-01T00:14:13;5.20;99.90
26745;DHT22;14342;50.960;13.880;2023-02-01T00:15:15;5.30;99.90
26745;DHT22;14342;50.960;13.880;2023-02-01T00:16:18;5.40;99.90
26745;DHT22;14342;50.960;13.880;2023-02-01T00:17:19;5.40;99.90
26745;DHT22;14342;50.960;13.880;2023-02-01T00:18:21;5.30;99.90
26745;DHT22;14342;50.960;13.880;2023-02-01T00:19:21;5.20;99.90
26745;DHT22;14342;50.960;13.880;2023-02-01T00:20:23;5.20;99.90
26745;DHT22;14342;50.960;13.880;2023-02-01T00:21:23;5.20;99.90
26745;DHT22;14342;50.960;13.880;2023-02-01T00:22:25;5.10;99.90
26745;DHT22;14342;50.960;13.880;2023-02-01T00:23:26;5.10;99.90
26745;DHT22;14342;50.960;13.880;2023-02-01T00:24:27;5.10;99.90
26745;DHT22;14342;50.960;13.880;2023-02-01T00:25:28;5.10;99.90
26745;DHT22;14342;50.960;13.880;2023-02-01T00:26:30;5.20;99.90
26745;DHT22;14342;50.960;13.880;2023-02-01T00:27:31;5.20;99.90
26745;DHT22;14342;50.960;13.880;2023-02-01T00:28:33;5.20;99.90
26745;DHT22;14342;50.960;13.880;2023-02-01T00:29:34;5.30;99.90
26745;DHT22;14342;50.960;13.880;2023-02-01T00:30:37;5.30;99.90
26745;DHT22;14342;50.960;13.880;2023-02-01T00:31:37;5.30;99.90
26745;DHT22;14342;50.960;13.880;2023-02-01T00:32:39;5.40;99.90
26745;DHT22;14342;50.960;13.880;2023-02-01T00:33:39;5.40;99.90
26745;DHT22;14342;50.960;13.880;2023-02-01T00:34:41;5.20;99.90
26745;DHT22;14342;50.960;13.880;2023-02-01T00:35:42;5.20;99.90
26745;DHT22;14342;50.960;13.880;2023-02-01T00:36:43;5.20;99.90
26745;DHT22;14342;50.960;13.880;2023-02-01T00:37:44;5.20;99.90
26745;DHT22;14342;50.960;13.880;2023-02-01T00:38:45;5.30;99.90
26745;DHT22;14342;50.960;13.880;2023-02-01T00:39:46;5.30;99.90
26745;DHT22;14342;50.960;13.880;2023-02-01T00:40:48;5.40;99.90
26745;DHT22;14342;50.960;13.880;2023-02-01T00:41:48;5.40;99.90
26745;DHT22;14342;50.960;13.880;2023-02-01T00:42:50;5.40;99.90
26745;DHT22;14342;50.960;13.880;2023-02-01T00:43:50;5.40;99.90
26745;DHT22;14342;50.960;13.880;2023-02-01T00:44:52;5.50;99.90
26745;DHT22;14342;50.960;13.880;2023-02-01T00:45:55;5.60;99.90
26745;DHT22;14342;50.960;13.880;2023-02-01T00:46:55;5.50;99.90
26745;DHT22;14342;50.960;13.880;2023-02-01T00:47:57;5.50;99.90
26745;DHT22;14342;50.960;13.880;2023-02-01T00:48:57;5.50;99.90
26745;DHT22;14342;50.960;13.880;2023-02-01T00:49:59;5.50;99.90
26745;DHT22;14342;50.960;13.880;2023-02-01T00:51:00;5.50;99.90
26745;DHT22;14342;50.960;13.880;2023-02-01T00:52:01;5.50;99.90
26745;DHT22;14342;50.960;13.880;2023-02-01T00:53:03;5.40;99.90
26745;DHT22;14342;50.960;13.880;2023-02-01T00:54:03;5.30;99.90
26745;DHT22;14342;50.960;13.880;2023-02-01T00:55:05;5.30;99.90
26745;DHT22;14342;50.960;13.880;2023-02-01T00:56:06;5.40;99.90
26745;DHT22;14342;50.960;13.880;2023-02-01T00:57:08;5.30;99.90
26745;DHT22;14342;50.960;13.880;2023-02-01T00:58:09;5.30;99.90
26745;DHT22;14342;50.960;13.880;2023-02-01T00:59:11;5.30;99.90
26745;DHT22;14342;50.960;13.880;2023-02-01T01:00:12;5.30;99.90
26745;DHT22;14342;50.960;13.880;2023-02-01T01:01:15;5.20;99.90
26745;DHT22;14342;50.960;13.880;2023-02-01T01:02:16;5.30;99.90
26745;DHT22;14342;50.960;13.880;2023-02-01T01:03:18;5.20;99.90
26745;DHT22;14342;50.960;13.880;2023-02-01T01:04:18;5.20;99.90
26745;DHT22;14342;50.960;13.880;2023-02-01T01:05:20;5.30;99.90
26745;DHT22;14342;50.960;13.880;2023-02-01T01:06:21;5.30;99.90
26745;DHT22;14342;50.960;13.880;2023-02-01T01:07:23;5.30;99.90
26745;DHT22;14342;50.960;13.880;2023-02-01T01:08:24;5.30;99.90
26745;DHT22;14342;50.960;13.880;2023-02-01T01:09:25;5.20;99.90
26745;DHT22;14342;50.960;13.880;2023-02-01T01:10:27;5.20;99.90
26745;DHT22;14342;50.960;13.880;2023-02-01T01:11:28;5.20;99.90
26745;DHT22;14342;50.960;13.880;2023-02-01T01:12:29;5.30;99.90
26745;DHT22;14342;50.960;13.880;2023-02-01T01:13:30;5.30;99.90
26745;DHT22;14342;50.960;13.880;2023-02-01T01:14:31;5.40;99.90
26745;DHT22;14342;50.960;13.880;2023-02-01T01:15:35;5.40;99.90
26745;DHT22;14342;50.960;13.880;2023-02-01T01:16:37;5.30;99.90
26745;DHT22;14342;50.960;13.880;2023-02-01T01:17:39;5.30;99.90
26745;DHT22;14342;50.960;13.880;2023-02-01T01:18:39;5.40;99.90
26745;DHT22;14342;50.960;13.880;2023-02-01T01:19:41;5.40;99.90
26745;DHT22;14342;50.960;13.880;2023-02-01T01:20:42;5.30;99.90
26745;DHT22;14342;50.960;13.880;2023-02-01T01:21:43;5.30;99.90
26745;DHT22;14342;50.960;13.880;2023-02-01T01:22:44;5.20;99.90
26745;DHT22;14342;50.960;13.880;2023-02-01T01:23:46;5.20;99.90
26745;DHT22;14342;50.960;13.880;2023-02-01T01:24:46;5.30;99.90
26745;DHT22;14342;50.960;13.880;2023-02-01T01:25:48;5.40;99.90
26745;DHT22;14342;50.960;13.880;2023-02-01T01:26:48;5.40;99.90
26745;DHT22;14342;50.960;13.880;2023-02-01T01:27:50;5.40;99.90
26745;DHT22;14342;50.960;13.880;2023-02-01T01:28:51;5.40;99.90
26745;DHT22;14342;50.960;13.880;2023-02-01T01:29:53;5.40;99.90
26745;DHT22;14342;50.960;13.880;2023-02-01T01:30:53;5.40;99.90
26745;DHT22;14342;50.960;13.880;2023-02-01T01:31:56;5.40;99.90
26745;DHT22;14342;50.960;13.880;2023-02-01T01:32:57;5.40;99.90
26745;DHT22;14342;50.960;13.880;2023-02-01T01:33:59;5.40;99.90
26745;DHT22;14342;50.960;13.880;2023-02-01T01:34:59;5.40;99.90
26745;DHT22;14342;50.960;13.880;2023-02-01T01:36:01;5.50;99.90
26745;DHT22;14342;50.960;13.880;2023-02-01T01:37:01;5.50;99.90
26745;DHT22;14342;50.960;13.880;2023-02-01T01:38:03;5.50;99.90
26745;DHT22;14342;50.960;13.880;2023-02-01T01:39:03;5.50;99.90
26745;DHT22;14342;50.960;13.880;2023-02-01T01:40:06;5.50;99.90
26745;DHT22;14342;50.960;13.880;2023-02-01T01:41:07;5.40;99.90
26745;DHT22;14342;50.960;13.880;2023-02-01T01:42:10;5.40;99.90
26745;DHT22;14342;50.960;13.880;2023-02-01T01:43:13;5.40;99.90
26745;DHT22;14342;50.960;13.880;2023-02-01T01:45:35;5.50;99.90
26745;DHT22;14342;50.960;13.880;2023-02-01T01:46:36;5.40;99.90
26745;DHT22;14342;50.960;13.880;2023-02-01T01:47:46;5.50;99.90
26745;DHT22;14342;50.960;13.880;2023-02-01T01:48:49;5.40;99.90
26745;DHT22;14342;50.960;13.880;2023-02-01T01:49:51;5.30;99.90
26745;DHT22;14342;50.960;13.880;2023-02-01T01:50:54;5.30;99.90
26745;DHT22;14342;50.960;13.880;2023-02-01T01:51:58;5.20;99.90
26745;DHT22;14342;50.960;13.880;2023-02-01T01:53:02;5.10;99.90
26745;DHT22;14342;50.960;13.880;2023-02-01T01:54:06;5.20;99.90
26745;DHT22;14342;50.960;13.880;2023-02-01T01:55:08;5.30;99.90
26745;DHT22;14342;50.960;13.880;2023-02-01T01:56:10;5.30;99.90
26745;DHT22;14342;50.960;13.880;2023-02-01T01:57:12;5.40;99.90
26745;DHT22;14342;50.960;13.880;2023-02-01T01:58:15;5.50;99.90
26745;DHT22;14342;50.960;13.880;2023-02-01T01:59:17;5.40;99.90
26745;DHT22;14342;50.960;13.880;2023-02-01T02:00:19;5.30;99.90
26745;DHT22;14342;50.960;13.880;2023-02-01T02:01:20;5.40;99.90
26745;DHT22;14342;50.960;13.880;2023-02-01T02:02:22;5.50;99.90
26745;DHT22;14342;50.960;13.880;2023-02-01T02:03:25;5.50;99.90
26745;DHT22;14342;50.960;13.880;2023-02-01T02:04:27;5.60;99.90
26745;DHT22;14342;50.960;13.880;2023-02-01T02:05:28;5.70;99.90
26745;DHT22;14342;50.960;13.880;2023-02-01T02:06:32;5.80;99.90
26745;DHT22;14342;50.960;13.880;2023-02-01T02:07:35;5.60;99.90
26745;DHT22;14342;50.960;13.880;2023-02-01T02:08:37;5.60;99.90
26745;DHT22;14342;50.960;13.880;2023-02-01T02:09:38;5.70;99.90
26745;DHT22;14342;50.960;13.880;2023-02-01T02:10:40;5.60;99.90
26745;DHT22;14342;50.960;13.880;2023-02-01T02:11:58;5.60;99.90
26745;DHT22;14342;50.960;13.880;2023-02-01T02:13:00;5.70;99.90
26745;DHT22;14342;50.960;13.880;2023-02-01T02:14:01;5.60;99.90
26745;DHT22;14342;50.960;13.880;2023-02-01T02:15:02;5.80;99.90
26745;DHT22;14342;50.960;13.880;2023-02-01T02:16:09;5.60;99.90
26745;DHT22;14342;50.960;13.880;2023-02-01T02:17:17;5.50;99.90
26745;DHT22;14342;50.960;13.880;2023-02-01T02:18:25;5.40;99.90
26745;DHT22;14342;50.960;13.880;2023-02-01T02:22:16;5.40;99.90
26745;DHT22;14342;50.960;13.880;2023-02-01T02:23:27;5.40;99.90
26745;DHT22;14342;50.960;13.880;2023-02-01T02:24:39;5.50;99.90
26745;DHT22;14342;50.960;13.880;2023-02-01T02:25:53;5.60;99.90
26745;DHT22;14342;50.960;13.880;2023-02-01T02:27:06;5.50;99.90
26745;DHT22;14342;50.960;13.880;2023-02-01T02:29:48;5.30;99.90
26745;DHT22;14342;50.960;13.880;2023-02-01T02:30:55;5.30;99.90
26745;DHT22;14342;50.960;13.880;2023-02-01T02:32:12;5.30;99.90
26745;DHT22;14342;50.960;13.880;2023-02-01T02:34:48;5.30;99.90
26745;DHT22;14342;50.960;13.880;2023-02-01T02:35:52;5.20;99.90
26745;DHT22;14342;50.960;13.880;2023-02-01T02:37:00;5.20;99.90
26745;DHT22;14342;50.960;13.880;2023-02-01T02:38:05;5.20;99.90
26745;DHT22;14342;50.960;13.880;2023-02-01T02:39:15;5.30;99.90
26745;DHT22;14342;50.960;13.880;2023-02-01T02:40:20;5.40;99.90
26745;DHT22;14342;50.960;13.880;2023-02-01T02:41:24;5.30;99.90
26745;DHT22;14342;50.960;13.880;2023-02-01T02:42:52;5.10;99.90
26745;DHT22;14342;50.960;13.880;2023-02-01T02:44:18;5.10;99.90
26745;DHT22;14342;50.960;13.880;2023-02-01T02:45:41;5.20;99.90
26745;DHT22;14342;50.960;13.880;2023-02-01T02:47:02;5.20;99.90
26745;DHT22;14342;50.960;13.880;2023-02-01T02:48:34;5.30;99.90
26745;DHT22;14342;50.960;13.880;2023-02-01T02:49:39;5.10;99.90
26745;DHT22;14342;50.960;13.880;2023-02-01T02:50:44;5.10;99.90
26745;DHT22;14342;50.960;13.880;2023-02-01T02:52:06;5.10;99.90
26745;DHT22;14342;50.960;13.880;2023-02-01T02:53:48;5.20;99.90
26745;DHT22;14342;50.960;13.880;2023-02-01T02:55:11;5.10;99.90
26745;DHT22;14342;50.960;13.880;2023-02-01T02:56:13;5.00;99.90
26745;DHT22;14342;50.960;13.880;2023-02-01T02:57:34;5.00;99.90
26745;DHT22;14342;50.960;13.880;2023-02-01T02:58:54;5.00;99.90
26745;DHT22;14342;50.960;13.880;2023-02-01T03:00:14;4.90;99.90
26745;DHT22;14342;50.960;13.880;2023-02-01T03:01:35;4.90;99.90
26745;DHT22;14342;50.960;13.880;2023-02-01T03:02:55;5.00;99.90
26745;DHT22;14342;50.960;13.880;2023-02-01T03:04:14;5.00;99.90
26745;DHT22;14342;50.960;13.880;2023-02-01T03:05:17;5.00;99.90
26745;DHT22;14342;50.960;13.880;2023-02-01T03:06:22;5.00;99.90
26745;DHT22;14342;50.960;13.880;2023-02-01T03:08:48;5.20;99.90
26745;DHT22;14342;50.960;13.880;2023-02-01T03:09:54;4.90;99.90
26745;DHT22;14342;50.960;13.880;2023-02-01T03:10:55;5.20;99.90
26745;DHT22;14342;50.960;13.880;2023-02-01T03:11:58;5.20;99.90
26745;DHT22;14342;50.960;13.880;2023-02-01T03:13:22;5.10;99.90
26745;DHT22;14342;50.960;13.880;2023-02-01T03:14:24;5.20;99.90
26745;DHT22;14342;50.960;13.880;2023-02-01T03:15:29;5.20;99.90
26745;DHT22;14342;50.960;13.880;2023-02-01T03:16:33;5.10;99.90
26745;DHT22;14342;50.960;13.880;2023-02-01T03:17:38;5.10;99.90
26745;DHT22;14342;50.960;13.880;2023-02-01T03:18:41;5.10;99.90
26745;DHT22;14342;50.960;13.880;2023-02-01T03:19:45;5.00;99.90
26745;DHT22;14342;50.960;13.880;2023-02-01T03:20:50;5.10;99.90
26745;DHT22;14342;50.960;13.880;2023-02-01T03:21:55;5.00;99.90
26745;DHT22;14342;50.960;13.880;2023-02-01T03:22:57;5.00;99.90
26745;DHT22;14342;50.960;13.880;2023-02-01T03:24:00;5.00;99.90
26745;DHT22;14342;50.960;13.880;2023-02-01T03:25:03;5.00;99.90
26745;DHT22;14342;50.960;13.880;2023-02-01T03:26:07;5.10;99.90
26745;DHT22;14342;50.960;13.880;2023-02-01T03:27:10;5.10;99.90
26745;DHT22;14342;50.960;13.880;2023-02-01T03:28:13;5.20;99.90
26745;DHT22;14342;50.960;13.880;2023-02-01T03:29:17;5.20;99.90
26745;DHT22;14342;50.960;13.880;2023-02-01T03:30:20;5.20;99.90
26745;DHT22;14342;50.960;13.880;2023-02-01T03:31:21;5.30;99.90
26745;DHT22;14342;50.960;13.880;2023-02-01T03:32:23;5.20;99.90
26745;DHT22;14342;50.960;13.880;2023-02-01T03:33:24;5.10;99.90
26745;DHT22;14342;50.960;13.880;2023-02-01T03:34:26;5.10;99.90
26745;DHT22;14342;50.960;13.880;2023-02-01T03:35:28;5.10;99.90
26745;DHT22;14342;50.960;13.880;2023-02-01T03:36:30;5.10;99.90
26745;DHT22;14342;50.960;13.880;2023-02-01T03:37:33;5.10;99.90
26745;DHT22;14342;50.960;13.880;2023-02-01T03:38:37;5.10;99.90
26745;DHT22;14342;50.960;13.880;2023-02-01T03:39:39;5.10;99.90
26745;DHT22;14342;50.960;13.880;2023-02-01T03:40:43;5.00;99.90
26745;DHT22;14342;50.960;13.880;2023-02-01T03:41:46;5.10;99.90
26745;DHT22;14342;50.960;13.880;2023-02-01T03:42:50;5.00;99.90
26745;DHT22;14342;50.960;13.880;2023-02-01T03:43:57;5.00;99.90
26745;DHT22;14342;50.960;13.880;2023-02-01T03:45:01;5.00;99.90
26745;DHT22;14342;50.960;13.880;2023-02-01T03:46:05;5.10;99.90
26745;DHT22;14342;50.960;13.880;2023-02-01T03:47:08;5.10;99.90
26745;DHT22;14342;50.960;13.880;2023-02-01T03:48:10;5.20;99.90
26745;DHT22;14342;50.960;13.880;2023-02-01T03:49:17;5.30;99.90
26745;DHT22;14342;50.960;13.880;2023-02-01T03:50:20;5.40;99.90
26745;DHT22;14342;50.960;13.880;2023-02-01T03:51:23;5.20;99.90
26745;DHT22;14342;50.960;13.880;2023-02-01T03:52:26;5.20;99.90
26745;DHT22;14342;50.960;13.880;2023-02-01T03:53:30;5.20;99.90
26745;DHT22;14342;50.960;13.880;2023-02-01T03:54:32;5.10;99.90
26745;DHT22;14342;50.960;13.880;2023-02-01T03:55:34;5.10;99.90
26745;DHT22;14342;50.960;13.880;2023-02-01T03:56:36;5.10;99.90
26745;DHT22;14342;50.960;13.880;2023-02-01T03:57:39;5.30;99.90
26745;DHT22;14342;50.960;13.880;2023-02-01T03:58:42;5.40;99.90
26745;DHT22;14342;50.960;13.880;2023-02-01T04:00:04;5.40;99.90
26745;DHT22;14342;50.960;13.880;2023-02-01T04:01:05;5.30;99.90
26745;DHT22;14342;50.960;13.880;2023-02-01T04:02:06;5.10;99.90
26745;DHT22;14342;50.960;13.880;2023-02-01T04:03:08;5.20;99.90
26745;DHT22;14342;50.960;13.880;2023-02-01T04:04:09;5.30;99.90
26745;DHT22;14342;50.960;13.880;2023-02-01T04:05:20;5.30;99.90
26745;DHT22;14342;50.960;13.880;2023-02-01T04:06:20;5.50;99.90
26745;DHT22;14342;50.960;13.880;2023-02-01T04:07:22;5.50;99.90
26745;DHT22;14342;50.960;13.880;2023-02-01T04:08:22;5.40;99.90
26745;DHT22;14342;50.960;13.880;2023-02-01T04:09:25;5.40;99.90
26745;DHT22;14342;50.960;13.880;2023-02-01T04:10:26;5.30;99.90
26745;DHT22;14342;50.960;13.880;2023-02-01T04:11:28;5.20;99.90
26745;DHT22;14342;50.960;13.880;2023-02-01T04:12:29;5.20;99.90
26745;DHT22;14342;50.960;13.880;2023-02-01T04:13:30;5.30;99.90
26745;DHT22;14342;50.960;13.880;2023-02-01T04:14:31;5.40;99.90
26745;DHT22;14342;50.960;13.880;2023-02-01T04:15:33;5.40;99.90
26745;DHT22;14342;50.960;13.880;2023-02-01T04:16:34;5.50;99.90
26745;DHT22;14342;50.960;13.880;2023-02-01T04:17:36;5.50;99.90
26745;DHT22;14342;50.960;13.880;2023-02-01T04:18:37;5.50;99.90
26745;DHT22;14342;50.960;13.880;2023-02-01T04:19:38;5.40;99.90
26745;DHT22;14342;50.960;13.880;2023-02-01T04:20:39;5.50;99.90
26745;DHT22;14342;50.960;13.880;2023-02-01T04:21:40;5.50;99.90
26745;DHT22;14342;50.960;13.880;2023-02-01T04:22:41;5.40;99.90
26745;DHT22;14342;50.960;13.880;2023-02-01T04:23:42;5.20;99.90
26745;DHT22;14342;50.960;13.880;2023-02-01T04:24:47;5.20;99.90
26745;DHT22;14342;50.960;13.880;2023-02-01T04:25:48;5.10;99.90
26745;DHT22;14342;50.960;13.880;2023-02-01T04:26:49;5.20;99.90
26745;DHT22;14342;50.960;13.880;2023-02-01T04:27:50;5.20;99.90
26745;DHT22;14342;50.960;13.880;2023-02-01T04:28:51;5.20;99.90
26745;DHT22;14342;50.960;13.880;2023-02-01T04:29:53;5.20;99.90
26745;DHT22;14342;50.960;13.880;2023-02-01T04:30:54;5.20;99.90
26745;DHT22;14342;50.960;13.880;2023-02-01T04:31:56;5.20;99.90
26745;DHT22;14342;50.960;13.880;2023-02-01T04:32:56;5.20;99.90
26745;DHT22;14342;50.960;13.880;2023-02-01T04:33:58;5.30;99.90
26745;DHT22;14342;50.960;13.880;2023-02-01T04:34:58;5.40;99.90
26745;DHT22;14342;50.960;13.880;2023-02-01T04:36:00;5.20;99.90
26745;DHT22;14342;50.960;13.880;2023-02-01T04:37:00;5.10;99.90
26745;DHT22;14342;50.960;13.880;2023-02-01T04:38:02;5.10;99.90
26745;DHT22;14342;50.960;13.880;2023-02-01T04:39:03;5.20;99.90
26745;DHT22;14342;50.960;13.880;2023-02-01T04:40:07;5.20;99.90
26745;DHT22;14342;50.960;13.880;2023-02-01T04:41:07;5.20;99.90
26745;DHT22;14342;50.960;13.880;2023-02-01T04:42:09;5.10;99.90
26745;DHT22;14342;50.960;13.880;2023-02-01T04:43:09;5.10;99.90
26745;DHT22;14342;50.960;13.880;2023-02-01T04:44:12;5.10;99.90
26745;DHT22;14342;50.960;13.880;2023-02-01T04:45:13;5.10;99.90
26745;DHT22;14342;50.960;13.880;2023-02-01T04:46:15;5.20;99.90
26745;DHT22;14342;50.960;13.880;2023-02-01T04:47:16;4.90;99.90
26745;DHT22;14342;50.960;13.880;2023-02-01T04:48:18;5.30;99.90
26745;DHT22;14342;50.960;13.880;2023-02-01T04:49:19;5.40;99.90
26745;DHT22;14342;50.960;13.880;2023-02-01T04:50:21;5.50;99.90
26745;DHT22;14342;50.960;13.880;2023-02-01T04:51:22;5.50;99.90
26745;DHT22;14342;50.960;13.880;2023-02-01T04:52:23;5.50;99.90
26745;DHT22;14342;50.960;13.880;2023-02-01T04:53:24;5.40;99.90
26745;DHT22;14342;50.960;13.880;2023-02-01T04:54:26;5.30;99.90
26745;DHT22;14342;50.960;13.880;2023-02-01T04:55:28;5.20;99.90
26745;DHT22;14342;50.960;13.880;2023-02-01T04:56:30;5.20;99.90
26745;DHT22;14342;50.960;13.880;2023-02-01T04:57:31;5.20;99.90
26745;DHT22;14342;50.960;13.880;2023-02-01T04:58:33;5.30;99.90
26745;DHT22;14342;50.960;13.880;2023-02-01T04:59:33;5.20;99.90
26745;DHT22;14342;50.960;13.880;2023-02-01T05:00:35;5.30;99.90
26745;DHT22;14342;50.960;13.880;2023-02-01T05:01:36;5.30;99.90
26745;DHT22;14342;50.960;13.880;2023-02-01T05:02:37;5.30;99.90
26745;DHT22;14342;50.960;13.880;2023-02-01T05:03:38;5.30;99.90
26745;DHT22;14342;50.960;13.880;2023-02-01T05:04:39;5.30;99.90
26745;DHT22;14342;50.960;13.880;2023-02-01T05:05:40;5.30;99.90
26745;DHT22;14342;50.960;13.880;2023-02-01T05:06:41;5.30;99.90
26745;DHT22;14342;50.960;13.880;2023-02-01T05:07:42;5.40;99.90
26745;DHT22;14342;50.960;13.880;2023-02-01T05:08:43;5.30;99.90
26745;DHT22;14342;50.960;13.880;2023-02-01T05:09:44;5.30;99.90
26745;DHT22;14342;50.960;13.880;2023-02-01T05:10:47;5.20;99.90
26745;DHT22;14342;50.960;13.880;2023-02-01T05:11:48;5.30;99.90
26745;DHT22;14342;50.960;13.880;2023-02-01T05:13:09;5.40;99.90
26745;DHT22;14342;50.960;13.880;2023-02-01T05:14:28;5.30;99.90
26745;DHT22;14342;50.960;13.880;2023-02-01T05:15:30;5.30;99.90
26745;DHT22;14342;50.960;13.880;2023-02-01T05:16:31;5.40;99.90
26745;DHT22;14342;50.960;13.880;2023-02-01T05:17:32;5.40;99.90
26745;DHT22;14342;50.960;13.880;2023-02-01T05:18:33;5.50;99.90
26745;DHT22;14342;50.960;13.880;2023-02-01T05:19:34;5.40;99.90
26745;DHT22;14342;50.960;13.880;2023-02-01T05:20:35;5.30;99.90
26745;DHT22;14342;50.960;13.880;2023-02-01T05:21:37;5.30;99.90
26745;DHT22;14342;50.960;13.880;2023-02-01T05:22:37;5.40;99.90
26745;DHT22;14342;50.960;13.880;2023-02-01T05:23:39;5.40;99.90
26745;DHT22;14342;50.960;13.880;2023-02-01T05:24:54;5.40;99.90
26745;DHT22;14342;50.960;13.880;2023-02-01T05:25:59;5.60;99.90
26745;DHT22;14342;50.960;13.880;2023-02-01T05:27:00;5.40;99.90
26745;DHT22;14342;50.960;13.880;2023-02-01T05:28:02;5.30;99.90
26745;DHT22;14342;50.960;13.880;2023-02-01T05:29:03;5.30;99.90
26745;DHT22;14342;50.960;13.880;2023-02-01T05:30:06;5.40;99.90
26745;DHT22;14342;50.960;13.880;2023-02-01T05:31:09;5.50;99.90
26745;DHT22;14342;50.960;13.880;2023-02-01T05:32:09;5.60;99.90
26745;DHT22;14342;50.960;13.880;2023-02-01T05:33:11;5.70;99.90
26745;DHT22;14342;50.960;13.880;2023-02-01T05:34:12;5.80;99.90
26745;DHT22;14342;50.960;13.880;2023-02-01T05:35:13;5.60;99.90
26745;DHT22;14342;50.960;13.880;2023-02-01T05:36:14;5.60;99.90
26745;DHT22;14342;50.960;13.880;2023-02-01T05:37:16;5.40;99.90
26745;DHT22;14342;50.960;13.880;2023-02-01T05:38:16;5.30;99.90
26745;DHT22;14342;50.960;13.880;2023-02-01T05:39:18;5.30;99.90
26745;DHT22;14342;50.960;13.880;2023-02-01T05:40:19;5.20;99.90
26745;DHT22;14342;50.960;13.880;2023-02-01T05:41:22;5.20;99.90
26745;DHT22;14342;50.960;13.880;2023-02-01T05:42:22;5.10;99.90
26745;DHT22;14342;50.960;13.880;2023-02-01T05:43:24;5.20;99.90
26745;DHT22;14342;50.960;13.880;2023-02-01T05:44:25;5.20;99.90
26745;DHT22;14342;50.960;13.880;2023-02-01T05:45:26;5.20;99.90
26745;DHT22;14342;50.960;13.880;2023-02-01T05:46:27;5.10;99.90
26745;DHT22;14342;50.960;13.880;2023-02-01T05:47:28;5.10;99.90
26745;DHT22;14342;50.960;13.880;2023-02-01T05:48:29;5.20;99.90
26745;DHT22;14342;50.960;13.880;2023-02-01T05:49:31;5.10;99.90
26745;DHT22;14342;50.960;13.880;2023-02-01T05:50:32;5.20;99.90
26745;DHT22;14342;50.960;13.880;2023-02-01T05:51:36;5.30;99.90
26745;DHT22;14342;50.960;13.880;2023-02-01T05:52:37;5.20;99.90
26745;DHT22;14342;50.960;13.880;2023-02-01T05:53:38;5.20;99.90
26745;DHT22;14342;50.960;13.880;2023-02-01T05:54:40;5.20;99.90
26745;DHT22;14342;50.960;13.880;2023-02-01T05:55:41;5.20;99.90
26745;DHT22;14342;50.960;13.880;2023-02-01T05:56:44;5.10;99.90
26745;DHT22;14342;50.960;13.880;2023-02-01T05:57:45;5.10;99.90
26745;DHT22;14342;50.960;13.880;2023-02-01T05:58:46;5.10;99.90
26745;DHT22;14342;50.960;13.880;2023-02-01T05:59:47;4.70;99.90
26745;DHT22;14342;50.960;13.880;2023-02-01T06:00:48;5.20;99.90
26745;DHT22;14342;50.960;13.880;2023-02-01T06:01:50;5.30;99.90
26745;DHT22;14342;50.960;13.880;2023-02-01T06:02:51;5.30;99.90
26745;DHT22;14342;50.960;13.880;2023-02-01T06:03:52;5.40;99.90
26745;DHT22;14342;50.960;13.880;2023-02-01T06:04:53;5.30;99.90
26745;DHT22;14342;50.960;13.880;2023-02-01T06:05:54;5.30;99.90
26745;DHT22;14342;50.960;13.880;2023-02-01T06:06:55;5.30;99.90
26745;DHT22;14342;50.960;13.880;2023-02-01T06:07:57;5.20;99.90
26745;DHT22;14342;50.960;13.880;2023-02-01T06:08:58;5.20;99.90
26745;DHT22;14342;50.960;13.880;2023-02-01T06:10:00;5.10;99.90
26745;DHT22;14342;50.960;13.880;2023-02-01T06:11:01;5.10;99.90
26745;DHT22;14342;50.960;13.880;2023-02-01T06:12:05;5.20;99.90
26745;DHT22;14342;50.960;13.880;2023-02-01T06:13:06;5.10;99.90
26745;DHT22;14342;50.960;13.880;2023-02-01T06:14:07;5.20;99.90
26745;DHT22;14342;50.960;13.880;2023-02-01T06:15:09;5.10;99.90
26745;DHT22;14342;50.960;13.880;2023-02-01T06:16:10;5.10;99.90
26745;DHT22;14342;50.960;13.880;2023-02-01T06:17:11;4.70;99.90
26745;DHT22;14342;50.960;13.880;2023-02-01T06:18:12;5.10;99.90
26745;DHT22;14342;50.960;13.880;2023-02-01T06:19:16;5.10;99.90
26745;DHT22;14342;50.960;13.880;2023-02-01T06:20:17;5.10;99.90
26745;DHT22;14342;50.960;13.880;2023-02-01T06:21:18;5.20;99.90
26745;DHT22;14342;50.960;13.880;2023-02-01T06:22:23;5.20;99.90
26745;DHT22;14342;50.960;13.880;2023-02-01T06:23:25;5.10;99.90
26745;DHT22;14342;50.960;13.880;2023-02-01T06:24:26;5.10;99.90
26745;DHT22;14342;50.960;13.880;2023-02-01T06:25:27;5.20;99.90
26745;DHT22;14342;50.960;13.880;2023-02-01T06:26:28;5.30;99.90
26745;DHT22;14342;50.960;13.880;2023-02-01T06:27:31;5.20;99.90
26745;DHT22;14342;50.960;13.880;2023-02-01T06:28:32;5.20;99.90
26745;DHT22;14342;50.960;13.880;2023-02-01T06:29:34;5.20;99.90
26745;DHT22;14342;50.960;13.880;2023-02-01T06:30:34;5.20;99.90
26745;DHT22;14342;50.960;13.880;2023-02-01T06:31:36;5.30;99.90
26745;DHT22;14342;50.960;13.880;2023-02-01T06:32:36;5.30;99.90
26745;DHT22;14342;50.960;13.880;2023-02-01T06:33:39;5.30;99.90
26745;DHT22;14342;50.960;13.880;2023-02-01T06:34:41;5.40;99.90
26745;DHT22;14342;50.960;13.880;2023-02-01T06:35:41;5.40;99.90
26745;DHT22;14342;50.960;13.880;2023-02-01T06:36:44;5.50;99.90
26745;DHT22;14342;50.960;13.880;2023-02-01T06:37:46;5.50;99.90
26745;DHT22;14342;50.960;13.880;2023-02-01T06:38:46;5.40;99.90
26745;DHT22;14342;50.960;13.880;2023-02-01T06:39:48;5.40;99.90
26745;DHT22;14342;50.960;13.880;2023-02-01T06:40:51;5.40;99.90
26745;DHT22;14342;50.960;13.880;2023-02-01T06:41:52;5.50;99.90
26745;DHT22;14342;50.960;13.880;2023-02-01T06:42:55;5.50;99.90
26745;DHT22;14342;50.960;13.880;2023-02-01T06:43:56;5.60;99.90
26745;DHT22;14342;50.960;13.880;2023-02-01T06:44:57;5.90;99.90
26745;DHT22;14342;50.960;13.880;2023-02-01T06:45:59;5.60;99.90
26745;DHT22;14342;50.960;13.880;2023-02-01T06:47:02;5.70;99.90
26745;DHT22;14342;50.960;13.880;2023-02-01T06:48:04;5.60;99.90